Mentor, Indiana
Current Conditions -  °F | °C
As of 11:15 AM on Thursday 30 Oct 2014 (Local Time) from KHNB Reporting Station
Clear Clear  
Wind Chill: 50°   Ceiling: Unl
Heat Index: 50°   Visibility: 10mi
Dew Point: 36°   Wind: 0mph
Humidity: 58%   Direction: NA
Pressure: 30.17"   Gusts: NA
Location:  38.2817°N, 86.7167°W
Report Text: KHNB 301615Z AUTO 00000KT 10SM CLR 10/02 A3017 RMK AO1
Loading
Personal Weather Stations






























Interactive Weather Map
Tropical Storm Tracking
New forecast layout! Learn more

10-Day Weather Forecast

Advertisements
Track Severe Weather on mobile